Time;durP1;ratioP1;P1;durP2;ratioP2;P2;SDS_P1;SDS_P2;PMS_P1;PMS_P2;Temp;Humidity;BMP_temperature;BMP_pressure;BME280_temperature;BME280_humidity;BME280_pressure;Samples;Min_cycle;Max_cycle;Signal;HPM_P1;HPM_P2
2023/02/19 00:01:34;;;;;;;15.13;1.75;;;;;;;8.17;100.00;101512.84;4942887;28;20043;-80
2023/02/19 00:04:06;;;;;;;10.38;1.77;;;;;;;8.17;100.00;101517.31;4950047;28;20081;-80
2023/02/19 00:06:33;;;;;;;7.35;1.27;;;;;;;8.15;100.00;101516.53;4942722;28;20046;-79
2023/02/19 00:09:00;;;;;;;13.05;2.05;;;;;;;8.15;100.00;101522.66;4952586;28;20488;-80
2023/02/19 00:11:30;;;;;;;12.93;1.50;;;;;;;8.17;100.00;101533.91;4951211;28;20042;-80
2023/02/19 00:13:58;;;;;;;11.27;1.48;;;;;;;8.21;100.00;101537.22;4947429;28;20031;-80
2023/02/19 00:16:29;;;;;;;12.30;1.77;;;;;;;8.24;100.00;101542.28;4944614;28;20038;-79
2023/02/19 00:18:57;;;;;;;12.13;1.77;;;;;;;8.25;100.00;101540.50;4927253;29;20040;-80
2023/02/19 00:21:23;;;;;;;15.95;1.75;;;;;;;8.25;100.00;101537.84;4947724;28;20097;-80
2023/02/19 00:24:01;;;;;;;7.95;1.63;;;;;;;8.26;100.00;101544.81;4947860;28;20039;-80
2023/02/19 00:26:27;;;;;;;12.75;1.25;;;;;;;8.25;100.00;101545.75;4951533;28;20035;-80
2023/02/19 00:28:55;;;;;;;12.00;1.42;;;;;;;8.26;100.00;101540.38;4941923;29;20081;-80
2023/02/19 00:31:22;;;;;;;11.50;2.35;;;;;;;8.26;100.00;101550.06;4961160;28;20027;-80
2023/02/19 00:33:51;;;;;;;7.43;1.50;;;;;;;8.26;100.00;101550.94;4939517;28;20061;-80
2023/02/19 00:36:17;;;;;;;9.18;1.20;;;;;;;8.25;100.00;101553.66;4955624;28;20031;-80
2023/02/19 00:38:44;;;;;;;9.98;1.27;;;;;;;8.27;100.00;101557.88;4955070;28;20046;-79
2023/02/19 00:41:17;;;;;;;15.38;1.48;;;;;;;8.29;100.00;101552.50;4928994;28;20039;-80
2023/02/19 00:43:59;;;;;;;14.32;2.05;;;;;;;8.30;100.00;101549.75;4949827;28;20038;-80
2023/02/19 00:46:30;;;;;;;12.18;1.92;;;;;;;8.30;100.00;101554.19;4954034;28;20138;-80
2023/02/19 00:48:57;;;;;;;7.55;1.17;;;;;;;8.28;100.00;101548.19;4954138;28;20452;-81
2023/02/19 00:51:32;;;;;;;7.45;1.02;;;;;;;8.32;100.00;101549.66;4955506;28;20031;-80
2023/02/19 00:53:59;;;;;;;7.75;1.15;;;;;;;8.30;100.00;101544.50;4959255;28;20105;-80
2023/02/19 00:56:25;;;;;;;10.35;0.90;;;;;;;8.28;100.00;101546.38;4953839;28;20051;-80
2023/02/19 00:58:51;;;;;;;13.18;1.42;;;;;;;8.32;100.00;101549.66;4924621;29;20066;-80
2023/02/19 01:01:18;;;;;;;11.50;1.60;;;;;;;8.37;100.00;101559.88;4924121;28;20037;-80
2023/02/19 01:03:45;;;;;;;8.10;1.05;;;;;;;8.34;100.00;101555.69;4937554;28;20050;-80
2023/02/19 01:06:14;;;;;;;7.57;1.13;;;;;;;8.37;100.00;101559.88;4954492;28;20032;-80
2023/02/19 01:08:40;;;;;;;11.73;1.70;;;;;;;8.36;100.00;101555.59;4942150;28;20395;-80
2023/02/19 01:11:07;;;;;;;9.85;1.30;;;;;;;8.36;100.00;101561.66;4955215;28;20035;-80
2023/02/19 01:13:34;;;;;;;9.80;1.60;;;;;;;8.35;100.00;101565.25;4929900;28;20042;-80
2023/02/19 01:16:27;;;;;;;10.43;2.00;;;;;;;8.37;100.00;101559.88;4935232;29;20047;-79
2023/02/19 01:18:55;;;;;;;6.88;1.10;;;;;;;8.32;100.00;101553.16;4950810;28;20047;-80
2023/02/19 01:21:24;;;;;;;8.60;1.30;;;;;;;8.30;100.00;101548.91;4953078;28;20086;-80
2023/02/19 01:23:51;;;;;;;8.18;1.08;;;;;;;8.29;100.00;101544.59;4924267;29;20377;-80
2023/02/19 01:26:20;;;;;;;5.78;1.02;;;;;;;8.25;100.00;101538.69;4956945;28;20043;-80
2023/02/19 01:28:47;;;;;;;8.07;1.42;;;;;;;8.22;100.00;101530.16;4923081;29;20031;-80
2023/02/19 01:31:16;;;;;;;10.23;1.00;;;;;;;8.23;100.00;101518.66;4955982;28;20049;-80
2023/02/19 01:33:47;;;;;;;13.10;1.35;;;;;;;8.18;100.00;101517.19;4947904;28;20035;-81
2023/02/19 01:36:13;;;;;;;8.00;0.90;;;;;;;8.10;100.00;101506.31;4924573;29;20440;-80
2023/02/19 01:38:39;;;;;;;8.43;1.60;;;;;;;8.07;100.00;101507.34;4921706;29;20399;-80
2023/02/19 01:41:08;;;;;;;8.18;1.10;;;;;;;7.99;100.00;101509.66;4933022;28;20090;-80
2023/02/19 01:43:53;;;;;;;7.47;1.02;;;;;;;7.94;100.00;101512.59;4954236;28;20035;-80
2023/02/19 01:46:19;;;;;;;7.25;0.93;;;;;;;7.91;100.00;101517.22;4945947;28;20050;-80
2023/02/19 01:48:45;;;;;;;8.52;0.82;;;;;;;7.89;100.00;101527.00;4948637;29;20032;-82
2023/02/19 01:51:16;;;;;;;10.45;0.82;;;;;;;7.93;100.00;101539.84;4955307;28;20497;-80
2023/02/19 01:53:53;;;;;;;7.38;1.10;;;;;;;7.95;100.00;101531.84;4862861;29;20051;-80
2023/02/19 01:56:20;;;;;;;4.28;0.68;;;;;;;7.91;100.00;101538.28;4954856;28;20182;-80
2023/02/19 01:58:46;;;;;;;7.45;0.90;;;;;;;7.88;100.00;101534.06;4951629;28;20046;-80
2023/02/19 02:01:12;;;;;;;4.20;0.65;;;;;;;7.89;100.00;101542.78;4951546;28;20083;-80
2023/02/19 02:03:40;;;;;;;8.45;1.20;;;;;;;7.89;100.00;101529.63;4960233;28;20046;-80
2023/02/19 02:06:15;;;;;;;6.45;1.05;;;;;;;7.89;100.00;101532.25;4929792;29;20039;-80
2023/02/19 02:11:26;;;;;;;7.93;0.90;;;;;;;7.84;100.00;101535.19;4951571;28;20022;-80
2023/02/19 02:13:53;;;;;;;7.72;1.27;;;;;;;7.85;100.00;101528.16;4944842;28;20036;-80
2023/02/19 02:16:29;;;;;;;8.48;0.80;;;;;;;7.86;100.00;101519.28;4947810;28;20488;-80
2023/02/19 02:19:04;;;;;;;7.93;0.80;;;;;;;7.85;100.00;101520.25;4942979;28;20040;-80
2023/02/19 02:22:00;;;;;;;9.10;0.80;;;;;;;7.80;100.00;101524.00;4927769;29;20039;-80
2023/02/19 02:24:40;;;;;;;9.77;0.80;;;;;;;7.78;100.00;101530.31;4927386;29;20489;-80
2023/02/19 02:27:40;;;;;;;4.45;0.57;;;;;;;7.72;100.00;101539.47;4930119;29;20035;-79
2023/02/19 02:30:16;;;;;;;6.95;0.90;;;;;;;7.68;100.00;101543.22;4962737;28;20447;-80
2023/02/19 02:32:52;;;;;;;6.18;0.60;;;;;;;7.66;100.00;101548.59;4958048;28;20486;-80
2023/02/19 02:35:29;;;;;;;4.28;0.80;;;;;;;7.62;100.00;101547.09;4950979;28;20044;-81
2023/02/19 02:37:59;;;;;;;6.55;1.02;;;;;;;7.57;100.00;101546.53;4949167;28;20509;-80
2023/02/19 02:40:25;;;;;;;4.00;0.90;;;;;;;7.50;100.00;101535.56;4955006;28;20707;-80
2023/02/19 02:42:51;;;;;;;8.85;2.13;;;;;;;7.51;100.00;101553.03;4943180;28;20186;-80
2023/02/19 02:45:35;;;;;;;2.67;0.63;;;;;;;7.47;100.00;101543.63;4952806;28;20035;-80
2023/02/19 02:48:33;;;;;;;5.78;0.77;;;;;;;7.45;100.00;101549.00;4929372;29;20040;-80
2023/02/19 02:51:14;;;;;;;12.40;0.80;;;;;;;7.41;100.00;101546.66;4949056;28;20118;-80
2023/02/19 02:56:35;;;;;;;5.35;0.73;;;;;;;7.26;100.00;101551.09;4929779;29;20496;-80
2023/02/19 02:59:06;;;;;;;9.65;0.82;;;;;;;7.27;100.00;101542.25;4930265;29;20138;-80
2023/02/19 03:05:50;;;;;;;4.63;0.68;;;;;;;7.18;100.00;101535.81;4949719;29;20039;-80
2023/02/19 03:07:38;;;;;;;5.20;0.77;;;;;;;7.06;100.00;101542.66;4944165;28;20599;-76
2023/02/19 03:10:08;;;;;;;6.25;0.80;;;;;;;7.04;100.00;101555.88;4934170;29;20042;-76
2023/02/19 03:21:04;;;;;;;3.92;0.63;;;;;;;7.00;100.00;101541.25;4947295;28;20034;-80
2023/02/19 03:26:18;;;;;;;5.07;0.50;;;;;;;7.07;100.00;101547.81;4929529;29;20098;-80
2023/02/19 03:31:41;;;;;;;4.70;0.60;;;;;;;7.12;100.00;101562.47;4952032;28;20046;-80
2023/02/19 03:34:13;;;;;;;2.60;0.47;;;;;;;7.16;100.00;101563.97;4951546;28;20389;-79
2023/02/19 03:36:44;;;;;;;4.25;0.50;;;;;;;7.20;100.00;101560.19;4933827;29;20507;-80
2023/02/19 03:39:14;;;;;;;7.45;0.70;;;;;;;7.20;100.00;101553.16;4951144;28;20042;-80
2023/02/19 03:41:52;;;;;;;3.05;0.38;;;;;;;7.22;100.00;101563.59;4918662;29;20147;-80
2023/02/19 03:44:46;;;;;;;6.35;0.45;;;;;;;7.30;100.00;101571.00;4938200;29;20050;-80
2023/02/19 03:47:30;;;;;;;5.65;0.63;;;;;;;7.32;100.00;101577.88;4933565;29;20028;-79
2023/02/19 03:49:55;;;;;;;5.85;1.25;;;;;;;7.32;100.00;101584.91;4945341;28;20812;-80
2023/02/19 03:52:43;;;;;;;3.63;0.70;;;;;;;7.34;100.00;101597.97;4938326;29;20036;-79
2023/02/19 03:55:26;;;;;;;12.77;1.02;;;;;;;7.39;100.00;101588.84;4964255;28;20156;-80
2023/02/19 03:57:59;;;;;;;3.83;0.63;;;;;;;7.44;100.00;101596.44;4933295;29;20070;-80
2023/02/19 04:00:37;;;;;;;5.47;0.65;;;;;;;7.49;100.00;101596.16;4929643;29;20602;-80
2023/02/19 04:03:30;;;;;;;6.10;0.65;;;;;;;7.48;100.00;101612.91;4929012;28;20562;-80
2023/02/19 04:06:01;;;;;;;5.63;0.90;;;;;;;7.48;100.00;101597.97;4937985;28;20051;-80
2023/02/19 04:08:32;;;;;;;6.03;0.50;;;;;;;7.48;100.00;101612.91;4943256;28;20160;-80
2023/02/19 04:11:03;;;;;;;6.80;0.63;;;;;;;7.53;100.00;101609.03;4945559;28;20498;-80
2023/02/19 04:13:39;;;;;;;5.78;0.60;;;;;;;7.59;100.00;101606.97;4948583;28;20045;-80
2023/02/19 04:16:11;;;;;;;4.15;0.43;;;;;;;7.65;100.00;101612.69;4948658;28;20086;-80
2023/02/19 04:18:39;;;;;;;3.10;0.30;;;;;;;7.65;100.00;101598.69;4951274;28;20122;-80
2023/02/19 04:21:07;;;;;;;3.65;0.43;;;;;;;7.68;100.00;101603.75;4945103;28;20400;-80
2023/02/19 04:23:39;;;;;;;4.53;0.50;;;;;;;7.68;100.00;101604.59;4931315;28;20097;-80
2023/02/19 04:26:07;;;;;;;3.80;0.60;;;;;;;7.68;100.00;101617.75;4945457;28;20035;-80
2023/02/19 04:28:34;;;;;;;1.38;0.40;;;;;;;7.69;100.00;101616.81;4947026;28;20057;-80
2023/02/19 04:31:01;;;;;;;4.80;0.40;;;;;;;7.70;100.00;101607.13;4944386;28;20032;-80
2023/02/19 04:33:26;;;;;;;4.57;0.70;;;;;;;7.69;100.00;101608.09;4949161;28;20089;-80
2023/02/19 04:35:52;;;;;;;3.05;0.52;;;;;;;7.71;100.00;101593.03;4935515;29;20039;-80
2023/02/19 04:38:18;;;;;;;2.08;0.32;;;;;;;7.71;100.00;101598.28;4955371;28;20035;-80
2023/02/19 04:40:44;;;;;;;1.08;0.13;;;;;;;7.73;100.00;101580.63;4941881;28;20513;-80
2023/02/19 04:43:09;;;;;;;5.57;0.50;;;;;;;7.74;100.00;101581.47;4914779;28;20054;-80
2023/02/19 04:45:38;;;;;;;6.18;0.45;;;;;;;7.77;100.00;101589.19;4931364;29;20476;-79
2023/02/19 04:48:04;;;;;;;2.92;0.45;;;;;;;7.71;100.00;101586.94;4946394;28;20597;-80
2023/02/19 04:50:30;;;;;;;7.00;0.40;;;;;;;7.69;100.00;101592.31;4946326;28;20043;-80
2023/02/19 04:52:56;;;;;;;5.93;0.38;;;;;;;7.69;100.00;101577.34;4946861;28;20566;-80
2023/02/19 04:55:22;;;;;;;3.92;0.52;;;;;;;7.67;100.00;101584.50;4926257;28;20054;-79
2023/02/19 04:57:48;;;;;;;2.83;0.50;;;;;;;7.66;100.00;101590.69;4960075;28;20101;-80
2023/02/19 05:00:14;;;;;;;3.42;0.50;;;;;;;7.66;100.00;101577.53;4930162;29;20484;-80
2023/02/19 05:02:40;;;;;;;3.67;0.30;;;;;;;7.66;100.00;101577.53;4952225;28;20118;-80
2023/02/19 05:05:05;;;;;;;2.78;0.50;;;;;;;7.64;100.00;101576.81;4936159;28;20038;-80
2023/02/19 05:07:32;;;;;;;4.72;0.70;;;;;;;7.63;100.00;101579.53;4967131;28;20063;-80
2023/02/19 05:09:58;;;;;;;3.83;0.52;;;;;;;7.63;100.00;101582.16;4955677;28;20059;-80
2023/02/19 05:12:25;;;;;;;3.97;0.63;;;;;;;7.63;100.00;101590.88;4930659;28;20031;-80
2023/02/19 05:14:51;;;;;;;3.60;0.40;;;;;;;7.61;100.00;101581.41;4968456;28;20030;-80
2023/02/19 05:17:16;;;;;;;3.97;0.70;;;;;;;7.65;100.00;101575.00;4951584;28;20031;-80
2023/02/19 05:19:42;;;;;;;3.60;0.50;;;;;;;7.70;100.00;101565.03;4934336;28;20126;-79
2023/02/19 05:22:08;;;;;;;1.98;0.30;;;;;;;7.73;100.00;101572.72;4860500;28;20093;-79
2023/02/19 05:24:33;;;;;;;8.70;2.65;;;;;;;7.77;100.00;101573.38;4936322;28;20030;-80
2023/02/19 05:26:59;;;;;;;3.05;0.40;;;;;;;7.78;100.00;101564.53;4951600;28;20039;-80
2023/02/19 05:29:25;;;;;;;1.48;0.30;;;;;;;7.79;100.00;101559.19;4952040;28;20100;-80
2023/02/19 05:31:51;;;;;;;2.08;0.60;;;;;;;7.82;100.00;101563.38;4885889;28;20809;-80
2023/02/19 05:34:16;;;;;;;2.33;0.52;;;;;;;7.82;100.00;101558.13;4937142;28;20031;-80
2023/02/19 05:36:43;;;;;;;0.77;0.38;;;;;;;7.84;100.00;101572.03;4946949;28;20129;-79
2023/02/19 05:39:10;;;;;;;1.55;0.30;;;;;;;7.88;100.00;101562.16;4968689;28;20074;-80
2023/02/19 05:41:37;;;;;;;4.03;0.50;;;;;;;7.87;100.00;101563.13;4969780;28;20035;-80
2023/02/19 05:44:03;;;;;;;2.63;0.40;;;;;;;7.89;100.00;101564.69;4951248;28;20039;-80
2023/02/19 05:46:29;;;;;;;1.27;0.40;;;;;;;7.90;100.00;101569.00;4919351;28;20043;-80
2023/02/19 05:48:57;;;;;;;1.95;0.45;;;;;;;7.97;100.00;101558.94;4968183;28;20027;-80
2023/02/19 05:51:25;;;;;;;1.75;0.40;;;;;;;8.01;100.00;101559.59;4934188;28;20071;-80
2023/02/19 05:53:51;;;;;;;2.38;0.40;;;;;;;8.00;100.00;101555.25;4940442;28;20042;-80
2023/02/19 05:56:33;;;;;;;3.58;0.38;;;;;;;7.99;100.00;101557.06;4969322;28;20101;-80
2023/02/19 05:59:20;;;;;;;4.95;0.50;;;;;;;7.97;100.00;101555.44;4944612;28;20045;-80
2023/02/19 06:01:48;;;;;;;0.73;0.30;;;;;;;7.92;100.00;101546.06;4968813;28;20458;-80
2023/02/19 06:04:14;;;;;;;3.65;0.52;;;;;;;7.91;100.00;101549.66;4933332;28;20547;-80
2023/02/19 06:06:41;;;;;;;1.63;0.40;;;;;;;7.90;100.00;101544.50;4951873;28;20046;-79
2023/02/19 06:09:07;;;;;;;1.52;0.40;;;;;;;7.91;100.00;101538.28;4950625;28;20038;-80
2023/02/19 06:11:34;;;;;;;0.50;0.20;;;;;;;7.91;100.00;101525.13;4935034;28;20439;-80
2023/02/19 06:13:59;;;;;;;0.85;0.35;;;;;;;7.92;100.00;101530.28;4952801;28;20395;-80
2023/02/19 06:16:25;;;;;;;0.82;0.20;;;;;;;7.96;100.00;101533.56;4936594;28;20053;-80
2023/02/19 06:18:51;;;;;;;0.20;0.15;;;;;;;7.93;100.00;101518.78;4952323;28;20042;-80
2023/02/19 06:21:18;;;;;;;2.22;0.30;;;;;;;7.93;100.00;101520.59;4936509;28;20034;-80
2023/02/19 06:23:44;;;;;;;0.20;0.17;;;;;;;7.93;100.00;101518.78;4934707;28;20502;-80
2023/02/19 06:26:17;;;;;;;2.67;0.38;;;;;;;7.96;100.00;101525.66;4937506;28;20487;-79
2023/02/19 06:28:45;;;;;;;0.90;0.52;;;;;;;7.91;100.00;101528.59;4949888;28;20090;-80
2023/02/19 06:31:11;;;;;;;0.75;0.55;;;;;;;7.90;100.00;101533.97;4948603;28;20038;-80
2023/02/19 06:33:41;;;;;;;1.05;0.25;;;;;;;7.88;100.00;101527.94;4953756;28;20058;-80
2023/02/19 06:36:10;;;;;;;0.63;0.10;;;;;;;7.89;100.00;101532.25;4968506;28;20037;-80
2023/02/19 06:38:36;;;;;;;1.85;0.32;;;;;;;7.90;100.00;101528.69;4965166;28;20038;-80
2023/02/19 06:41:04;;;;;;;1.20;0.30;;;;;;;7.95;100.00;101523.97;4955452;28;20514;-80
2023/02/19 06:43:31;;;;;;;0.95;0.10;;;;;;;7.98;100.00;101512.41;4938722;28;20036;-80
2023/02/19 06:45:58;;;;;;;0.30;0.15;;;;;;;8.01;100.00;101533.25;4936013;28;20061;-79
2023/02/19 06:48:29;;;;;;;0.17;0.17;;;;;;;8.02;100.00;101530.53;4953831;28;20488;-79
2023/02/19 06:50:55;;;;;;;2.50;1.27;;;;;;;7.97;100.00;101527.34;4949855;28;20042;-80
2023/02/19 06:53:21;;;;;;;6.75;5.07;;;;;;;7.97;100.00;101523.84;4960764;28;20054;-80
2023/02/19 06:56:05;;;;;;;18.55;11.07;;;;;;;7.99;100.00;101525.47;4958248;28;20428;-80
2023/02/19 06:58:31;;;;;;;47.50;33.38;;;;;;;7.98;100.00;101523.75;4958352;28;20050;-80
2023/02/19 07:00:57;;;;;;;61.15;46.47;;;;;;;7.98;100.00;101530.84;4971891;28;20034;-80
2023/02/19 07:03:25;;;;;;;30.02;23.20;;;;;;;7.98;100.00;101522.94;4953169;28;20032;-80
2023/02/19 07:05:51;;;;;;;61.90;47.80;;;;;;;7.96;100.00;101528.31;4945573;28;20070;-80
2023/02/19 07:08:17;;;;;;;38.08;31.38;;;;;;;7.92;100.00;101529.44;4949465;28;20046;-80
2023/02/19 07:10:54;;;;;;;7.05;5.70;;;;;;;7.91;100.00;101531.22;4963073;28;21299;-80
2023/02/19 07:13:20;;;;;;;2.78;2.40;;;;;;;7.84;100.00;101529.06;4961741;28;20392;-80
2023/02/19 07:15:45;;;;;;;3.83;1.92;;;;;;;7.85;100.00;101536.03;4965239;28;20039;-79
2023/02/19 07:18:11;;;;;;;2.17;1.48;;;;;;;7.86;100.00;101540.34;4951216;28;20054;-80
2023/02/19 07:20:37;;;;;;;1.50;1.27;;;;;;;7.88;100.00;101544.59;4937131;28;20035;-79
2023/02/19 07:23:03;;;;;;;1.90;1.15;;;;;;;7.88;100.00;101544.59;4934807;28;20035;-80
2023/02/19 07:25:28;;;;;;;0.85;0.60;;;;;;;7.86;100.00;101537.72;4936253;28;20057;-80
2023/02/19 07:27:54;;;;;;;2.95;1.20;;;;;;;7.85;100.00;101539.50;4967605;28;20046;-80
2023/02/19 07:30:20;;;;;;;1.65;0.90;;;;;;;7.87;100.00;101540.25;4952793;28;20026;-80
2023/02/19 07:32:46;;;;;;;10.70;8.85;;;;;;;7.89;100.00;101555.94;4946185;28;20027;-80
2023/02/19 07:35:12;;;;;;;8.18;7.03;;;;;;;7.90;100.00;101555.84;4965367;28;20058;-80
2023/02/19 07:37:40;;;;;;;18.73;16.73;;;;;;;7.91;100.00;101554.94;4947469;28;20065;-80
2023/02/19 07:40:06;;;;;;;39.83;35.05;;;;;;;7.93;100.00;101574.06;4881597;28;20031;-80
2023/02/19 07:42:31;;;;;;;30.98;25.70;;;;;;;7.94;100.00;101567.03;4968401;28;20483;-80
2023/02/19 07:44:58;;;;;;;6.80;4.18;;;;;;;7.90;100.00;101576.09;4916142;28;20117;-80
2023/02/19 07:47:24;;;;;;;11.55;9.77;;;;;;;7.88;100.00;101580.59;4936803;28;20574;-80
2023/02/19 07:49:50;;;;;;;6.75;6.15;;;;;;;7.89;100.00;101577.00;4934906;28;20049;-80
2023/02/19 07:52:16;;;;;;;6.10;4.90;;;;;;;7.90;100.00;101576.09;4961887;28;20059;-80
2023/02/19 07:54:41;;;;;;;8.82;7.07;;;;;;;7.89;100.00;101574.38;4967040;28;20086;-80
2023/02/19 07:57:07;;;;;;;6.90;6.20;;;;;;;7.91;100.00;101572.50;4951113;28;20471;-80
2023/02/19 07:59:34;;;;;;;14.07;12.45;;;;;;;7.93;100.00;101573.25;4950974;28;22111;-80
2023/02/19 08:04:46;;;;;;;18.95;14.55;;;;;;;7.92;100.00;101571.53;4966182;28;20089;-80
2023/02/19 08:07:12;;;;;;;15.40;12.32;;;;;;;7.88;100.00;101580.59;4966400;28;20404;-80
2023/02/19 08:09:37;;;;;;;9.43;7.57;;;;;;;7.85;100.00;101578.97;4951200;28;20047;-80
2023/02/19 08:14:47;;;;;;;2.85;1.20;;;;;;;7.88;100.00;101594.63;4949853;28;20060;-81
2023/02/19 08:17:13;;;;;;;3.25;1.60;;;;;;;7.91;100.00;101614.63;4942099;28;20034;-80
2023/02/19 08:19:39;;;;;;;1.40;1.30;;;;;;;7.92;100.00;101603.13;4948090;28;20046;-80
2023/02/19 08:22:04;;;;;;;1.85;1.15;;;;;;;7.93;100.00;101603.03;4951661;28;20089;-80
2023/02/19 08:24:32;;;;;;;3.15;1.55;;;;;;;7.97;100.00;101601.06;4934230;28;20049;-80
2023/02/19 08:26:58;;;;;;;2.22;1.77;;;;;;;8.00;100.00;101602.63;4933438;28;20038;-80
2023/02/19 08:29:24;;;;;;;2.00;0.80;;;;;;;8.02;100.00;101604.25;4956993;28;20530;-80
2023/02/19 08:31:49;;;;;;;1.85;0.50;;;;;;;8.04;100.00;101599.72;4951592;28;20027;-80
2023/02/19 08:34:15;;;;;;;2.33;1.67;;;;;;;8.03;100.00;101594.53;4919072;28;20148;-80
2023/02/19 08:36:42;;;;;;;6.53;5.88;;;;;;;8.04;100.00;101602.34;4952623;28;20058;-80
2023/02/19 08:39:09;;;;;;;13.80;11.65;;;;;;;8.04;100.00;101593.63;4955094;28;20031;-80
2023/02/19 08:41:34;;;;;;;19.90;11.68;;;;;;;8.04;100.00;101591.81;4971158;28;20034;-80
2023/02/19 08:44:01;;;;;;;10.18;5.35;;;;;;;8.02;100.00;101584.97;4955512;28;20477;-80
2023/02/19 08:46:27;;;;;;;16.95;10.60;;;;;;;8.02;100.00;101587.59;4970170;28;20089;-80
2023/02/19 08:48:52;;;;;;;14.60;10.55;;;;;;;8.05;100.00;101588.25;4939890;28;20047;-80
2023/02/19 08:51:18;;;;;;;8.95;5.10;;;;;;;8.06;100.00;101579.41;4960875;28;20038;-80
2023/02/19 08:53:45;;;;;;;10.50;8.77;;;;;;;8.09;100.00;101582.78;4958446;28;20082;-80
2023/02/19 08:56:13;;;;;;;10.23;7.82;;;;;;;8.14;100.00;101583.31;4957315;28;20043;-80
2023/02/19 08:58:39;;;;;;;8.82;7.20;;;;;;;8.16;100.00;101584.06;4933990;28;20133;-80
2023/02/19 09:01:15;;;;;;;6.75;5.40;;;;;;;8.21;100.00;101583.75;4960397;28;20543;-80
2023/02/19 09:03:41;;;;;;;2.72;1.85;;;;;;;8.19;100.00;101583.88;4976382;28;20122;-80
2023/02/19 09:06:11;;;;;;;5.28;3.05;;;;;;;8.24;100.00;101573.03;4957557;28;20102;-80
2023/02/19 09:08:37;;;;;;;3.80;3.42;;;;;;;8.26;100.00;101569.38;4958178;28;20054;-80
2023/02/19 09:11:05;;;;;;;2.42;0.80;;;;;;;8.28;100.00;101570.09;4959526;28;20444;-76
2023/02/19 09:13:31;;;;;;;3.03;0.60;;;;;;;8.27;100.00;101580.72;4954464;28;20153;-76
2023/02/19 09:15:57;;;;;;;2.17;0.80;;;;;;;8.24;100.00;101580.94;4941194;28;20039;-80
2023/02/19 09:18:24;;;;;;;3.80;0.38;;;;;;;8.25;100.00;101585.28;4941594;28;20499;-80
2023/02/19 09:20:50;;;;;;;1.90;0.40;;;;;;;8.26;100.00;101586.94;4944094;28;20031;-80
2023/02/19 09:23:16;;;;;;;7.32;0.60;;;;;;;8.29;100.00;101586.75;4957922;28;20026;-80
2023/02/19 09:25:42;;;;;;;3.67;0.82;;;;;;;8.29;100.00;101603.41;4942057;28;20038;-80
2023/02/19 09:28:07;;;;;;;10.07;0.52;;;;;;;8.30;100.00;101588.41;4923196;28;20483;-80
2023/02/19 09:30:33;;;;;;;3.08;0.80;;;;;;;8.29;100.00;101598.13;4957109;28;20034;-80
2023/02/19 09:32:59;;;;;;;5.93;1.80;;;;;;;8.29;100.00;101600.78;4970266;28;20049;-80
2023/02/19 09:35:25;;;;;;;4.22;3.05;;;;;;;8.31;100.00;101604.13;4953262;28;20031;-80
2023/02/19 09:37:50;;;;;;;10.82;6.72;;;;;;;8.31;100.00;101590.13;4939165;28;20069;-80
2023/02/19 09:40:20;;;;;;;16.23;10.73;;;;;;;8.32;100.00;101590.03;4974411;28;20034;-80
2023/02/19 09:42:48;;;;;;;7.60;4.40;;;;;;;8.34;100.00;101596.97;4971013;28;20112;-80
2023/02/19 09:45:20;;;;;;;8.60;3.28;;;;;;;8.38;100.00;101604.56;4941358;28;20105;-80
2023/02/19 09:47:46;;;;;;;11.80;6.28;;;;;;;8.39;100.00;101615.97;4950815;28;20046;-80
2023/02/19 09:50:17;;;;;;;7.25;3.00;;;;;;;8.50;100.00;101621.38;4955953;28;20030;-80
2023/02/19 09:52:53;;;;;;;5.13;2.08;;;;;;;8.59;100.00;101625.22;4936532;28;20030;-80
2023/02/19 09:55:31;;;;;;;15.98;6.28;;;;;;;8.67;100.00;101619.44;4973227;28;20045;-80
2023/02/19 09:58:01;;;;;;;10.50;2.47;;;;;;;8.69;100.00;101622.81;4939182;28;20104;-80
2023/02/19 10:00:31;;;;;;;5.88;2.10;;;;;;;8.69;100.00;101626.28;4953033;28;20042;-80
2023/02/19 10:03:04;;;;;;;9.40;1.10;;;;;;;8.69;100.00;101613.09;4954195;28;20039;-80
2023/02/19 10:05:32;;;;;;;4.72;0.88;;;;;;;8.77;100.00;101619.66;4968512;28;20190;-80
2023/02/19 10:07:58;;;;;;;2.97;0.80;;;;;;;8.81;100.00;101616.72;4896051;28;20034;-80
2023/02/19 10:10:28;;;;;;;5.20;1.10;;;;;;;8.95;100.00;101622.84;4934642;28;20034;-80
2023/02/19 10:13:08;;;;;;;4.38;1.17;;;;;;;9.04;100.00;101624.88;4954054;28;20054;-80
2023/02/19 10:15:43;;;;;;;5.38;1.88;;;;;;;9.13;100.00;101623.38;4964732;28;20045;-80
2023/02/19 10:18:09;;;;;;;7.55;1.33;;;;;;;9.09;100.00;101606.09;4936997;28;20133;-80
2023/02/19 10:20:35;;;;;;;6.03;2.13;;;;;;;9.11;100.00;101606.81;4949609;28;20113;-80
2023/02/19 10:23:13;;;;;;;5.10;1.63;;;;;;;9.19;100.00;101603.63;4947198;28;20026;-80
2023/02/19 10:25:44;;;;;;;5.88;0.88;;;;;;;9.18;100.00;101594.03;4950353;28;20046;-80
2023/02/19 10:28:14;;;;;;;3.45;0.50;;;;;;;9.20;100.00;101593.94;4934780;28;20402;-80
2023/02/19 10:30:40;;;;;;;4.15;0.70;;;;;;;9.19;100.00;101598.34;4935423;28;20027;-80
2023/02/19 10:33:12;;;;;;;4.07;0.63;;;;;;;9.21;100.00;101599.09;4950493;28;20031;-80
2023/02/19 10:35:50;;;;;;;7.78;0.68;;;;;;;9.27;100.00;101605.78;4948778;28;20388;-80
2023/02/19 10:38:19;;;;;;;4.82;0.50;;;;;;;9.32;100.00;101602.81;4926427;28;20062;-80
2023/02/19 10:40:45;;;;;;;4.13;0.88;;;;;;;9.30;100.00;101606.38;4968545;28;20118;-80
2023/02/19 10:43:41;;;;;;;6.25;0.88;;;;;;;9.37;100.00;101598.88;4950544;28;20069;-80
2023/02/19 10:46:21;;;;;;;3.63;0.95;;;;;;;9.37;100.00;101590.97;4949080;28;20051;-80
2023/02/19 10:49:03;;;;;;;8.43;1.60;;;;;;;9.37;100.00;101590.09;4950283;28;20107;-80
2023/02/19 10:51:37;;;;;;;1.30;1.10;;;;;;;9.36;100.00;101577.88;4943895;28;20074;-80
2023/02/19 10:54:18;;;;;;;1.48;0.40;;;;;;;9.31;100.00;101586.13;4935478;28;20426;-80
2023/02/19 10:56:44;;;;;;;2.53;0.82;;;;;;;9.28;100.00;101592.47;4965814;28;20057;-80
2023/02/19 10:59:28;;;;;;;3.50;0.82;;;;;;;9.35;100.00;101590.22;4955454;28;20043;-80
2023/02/19 11:01:58;;;;;;;3.03;0.88;;;;;;;9.42;100.00;101599.41;4966597;28;20512;-80
2023/02/19 11:04:34;;;;;;;2.75;0.40;;;;;;;9.50;100.00;101605.94;4934685;28;20506;-80
2023/02/19 11:07:10;;;;;;;1.15;0.40;;;;;;;9.58;100.00;101602.75;4931889;28;20449;-80
2023/02/19 11:09:44;;;;;;;1.25;0.80;;;;;;;9.62;100.00;101598.94;4933414;28;20085;-80
2023/02/19 11:12:13;;;;;;;2.17;0.80;;;;;;;9.61;100.00;101600.75;4936866;28;20502;-80
2023/02/19 11:14:43;;;;;;;3.92;0.80;;;;;;;9.61;100.00;101605.16;4947532;28;20109;-80
2023/02/19 11:17:29;;;;;;;2.13;0.68;;;;;;;9.66;100.00;101595.13;4969558;28;20038;-80
2023/02/19 11:19:57;;;;;;;;;;;;;;;9.60;100.00;101591.16;4938188;28;20125;-80
2023/02/19 11:22:40;;;;;;;5.82;0.57;;;;;;;9.75;100.00;101597.09;4968261;28;20446;-80
2023/02/19 11:25:24;;;;;;;1.10;0.40;;;;;;;9.83;100.00;101593.91;4966296;28;20041;-80
2023/02/19 11:27:54;;;;;;;2.00;0.50;;;;;;;9.80;100.00;101594.13;4950120;28;20391;-80
2023/02/19 11:30:29;;;;;;;5.18;0.50;;;;;;;9.85;100.00;101591.16;4955151;28;20398;-80
2023/02/19 11:32:56;;;;;;;4.15;0.50;;;;;;;9.89;100.00;101590.81;4966341;28;20031;-80
2023/02/19 11:35:24;;;;;;;3.78;0.60;;;;;;;9.96;100.00;101577.16;4956063;28;20654;-80
2023/02/19 11:37:54;;;;;;;2.60;0.50;;;;;;;10.01;100.00;101572.41;4936868;28;20042;-80
2023/02/19 11:40:40;;;;;;;3.05;0.60;;;;;;;10.11;100.00;101570.78;4953173;28;20193;-80
2023/02/19 11:43:35;;;;;;;7.68;0.82;;;;;;;10.22;100.00;101572.63;4973248;28;20033;-80
2023/02/19 11:46:14;;;;;;;5.55;0.50;;;;;;;10.39;100.00;101570.50;4945891;28;20069;-80
2023/02/19 11:48:48;;;;;;;4.40;0.40;;;;;;;10.55;100.00;101567.59;4941474;28;20038;-80
2023/02/19 11:51:13;;;;;;;3.97;0.38;;;;;;;10.73;100.00;101561.84;4932970;28;20121;-80
2023/02/19 11:53:46;;;;;;;4.30;0.50;;;;;;;10.79;100.00;101553.44;4948716;28;20161;-80
2023/02/19 11:56:19;;;;;;;5.28;0.77;;;;;;;10.86;100.00;101552.00;4932477;29;20440;-79
2023/02/19 11:59:03;;;;;;;2.53;0.40;;;;;;;10.96;100.00;101543.38;4945447;29;20039;-80
2023/02/19 12:02:05;;;;;;;3.45;0.40;;;;;;;10.97;100.00;101547.69;4911680;29;20042;-80
2023/02/19 12:05:02;;;;;;;2.40;0.40;;;;;;;11.07;100.00;101540.72;4930352;29;20035;-80
2023/02/19 12:07:40;;;;;;;;;;;;;;;11.04;100.00;101533.00;4945747;29;20034;-80